Time;durP1;ratioP1;P1;durP2;ratioP2;P2;SDS_P1;SDS_P2;PMS_P1;PMS_P2;Temp;Humidity;BMP_temperature;BMP_pressure;BME280_temperature;BME280_humidity;BME280_pressure;Samples;Min_cycle;Max_cycle;Signal;HPM_P1;HPM_P2
2022/04/27 00:00:02;;;;;;;;;12.00;11.50;;;;;13.05;45.58;102023.19;2403597;28;45476;-79
2022/04/27 00:01:17;;;;;;;;;5.75;3.00;;;;;13.03;45.50;102029.41;2403954;28;45469;-79
2022/04/27 00:02:30;;;;;;;;;12.50;11.25;;;;;13.02;45.85;102023.25;2404092;28;44593;-79
2022/04/27 00:03:41;;;;;;;;;11.25;11.25;;;;;13.03;45.56;102029.41;2403939;28;46191;-78
2022/04/27 00:04:52;;;;;;;;;18.00;12.50;;;;;13.01;45.71;102029.44;2403981;28;45380;-79
2022/04/27 00:06:02;;;;;;;;;15.00;14.50;;;;;12.96;45.71;102031.31;2403691;28;46185;-79
2022/04/27 00:07:13;;;;;;;;;18.25;15.00;;;;;12.96;45.64;102035.72;2408850;28;44873;-79
2022/04/27 00:08:23;;;;;;;;;17.75;15.00;;;;;12.93;46.15;102031.38;2398449;28;46272;-79
2022/04/27 00:09:34;;;;;;;;;13.75;11.50;;;;;12.94;45.92;102038.38;2387368;28;44757;-79
2022/04/27 00:10:44;;;;;;;;;15.75;13.75;;;;;12.92;45.83;102038.44;2402647;28;46374;-79
2022/04/27 00:11:56;;;;;;;;;23.00;14.25;;;;;12.91;45.93;102030.56;2403903;28;45216;-79
2022/04/27 00:13:06;;;;;;;;;11.75;8.75;;;;;12.89;46.00;102032.38;2403720;28;45647;-80
2022/04/27 00:14:17;;;;;;;;;16.75;15.50;;;;;12.86;46.12;102025.38;2404033;28;44608;-80
2022/04/27 00:15:28;;;;;;;;;15.50;13.75;;;;;12.87;46.30;102027.09;2393637;28;47945;-79
2022/04/27 00:16:39;;;;;;;;;13.25;13.25;;;;;12.87;46.11;102029.75;2398868;28;45263;-79
2022/04/27 00:17:49;;;;;;;;;23.75;15.50;;;;;12.87;46.13;102028.88;2413436;28;45472;-81
2022/04/27 00:18:59;;;;;;;;;13.75;12.00;;;;;12.82;46.28;102026.34;2402477;28;45411;-81
2022/04/27 00:20:10;;;;;;;;;18.50;16.50;;;;;12.80;46.02;102034.28;2404734;28;45344;-82
2022/04/27 00:21:20;;;;;;;;;15.00;14.75;;;;;12.77;46.15;102023.78;2413458;28;44734;-81
2022/04/27 00:22:31;;;;;;;;;18.00;14.00;;;;;12.77;46.14;102033.47;2395707;28;45278;-81
2022/04/27 00:23:41;;;;;;;;;16.00;15.50;;;;;12.73;46.08;102030.06;2403599;28;45258;-82
2022/04/27 00:24:52;;;;;;;;;15.25;14.75;;;;;12.72;46.04;102028.31;2403721;28;45421;-81
2022/04/27 00:26:02;;;;;;;;;17.25;16.25;;;;;12.70;46.14;102027.47;2403851;28;45448;-82
2022/04/27 00:27:12;;;;;;;;;17.75;15.75;;;;;12.69;46.44;102028.38;2403805;28;45352;-81
2022/04/27 00:28:23;;;;;;;;;16.50;15.50;;;;;12.70;46.22;102027.47;2403438;28;45381;-81
2022/04/27 00:29:33;;;;;;;;;17.75;15.75;;;;;12.68;46.11;102030.16;2403494;28;45430;-80
2022/04/27 00:30:43;;;;;;;;;13.50;13.00;;;;;12.68;46.33;102029.28;2403899;28;45231;-80
2022/04/27 00:31:54;;;;;;;;;15.25;13.00;;;;;12.66;46.23;102034.59;2403670;28;46255;-80
2022/04/27 00:33:04;;;;;;;;;14.75;14.75;;;;;12.68;46.31;102034.56;2393532;28;44732;-80
2022/04/27 00:34:14;;;;;;;;;19.25;13.50;;;;;12.66;46.65;102028.44;2396399;28;45254;-80
2022/04/27 00:35:25;;;;;;;;;16.00;13.50;;;;;12.65;46.32;102037.25;2403950;28;45247;-80
2022/04/27 00:36:35;;;;;;;;;15.00;11.50;;;;;12.64;46.40;102035.53;2403175;28;45268;-80
2022/04/27 00:37:46;;;;;;;;;16.00;16.00;;;;;12.65;46.49;102039.88;2404440;28;44723;-80
2022/04/27 00:38:56;;;;;;;;;17.25;13.50;;;;;12.63;46.28;102037.28;2403710;28;45229;-79
2022/04/27 00:40:07;;;;;;;;;17.75;14.75;;;;;12.64;46.38;102035.53;2403777;28;45168;-80
2022/04/27 00:41:18;;;;;;;;;16.75;15.25;;;;;12.63;46.33;102039.94;2403719;28;45573;-80
2022/04/27 00:42:29;;;;;;;;;18.00;14.25;;;;;12.63;46.42;102037.28;2403745;28;45297;-79
2022/04/27 00:43:41;;;;;;;;;14.00;14.00;;;;;12.63;46.67;102028.50;2403613;28;46121;-81
2022/04/27 00:44:51;;;;;;;;;13.25;13.25;;;;;12.61;46.34;102036.47;2403701;28;45330;-82
2022/04/27 00:46:02;;;;;;;;;15.50;11.75;;;;;12.62;46.45;102037.34;2403681;28;45397;-82
2022/04/27 00:47:15;;;;;;;;;15.50;13.50;;;;;12.58;46.29;102026.84;2403759;28;45412;-82
2022/04/27 00:48:25;;;;;;;;;14.00;13.25;;;;;12.58;46.49;102034.75;2403450;28;46295;-82
2022/04/27 00:49:36;;;;;;;;;17.75;16.00;;;;;12.55;46.60;102029.53;2403769;28;44645;-82
2022/04/27 00:50:46;;;;;;;;;15.00;13.75;;;;;12.53;46.74;102031.34;2403576;28;45371;-82
2022/04/27 00:51:57;;;;;;;;;21.00;14.50;;;;;12.53;47.02;102020.78;2403413;28;45251;-82
2022/04/27 00:53:07;;;;;;;;;17.00;13.00;;;;;12.54;46.88;102029.56;2399457;28;46691;-82
2022/04/27 00:54:22;;;;;;;;;15.75;13.75;;;;;12.53;46.54;102031.34;2406698;28;44584;-81
2022/04/27 00:55:32;;;;;;;;;15.25;14.00;;;;;12.55;46.78;102033.94;2411417;28;45424;-81
2022/04/27 00:56:43;;;;;;;;;17.50;14.50;;;;;12.53;46.60;102025.19;2394183;28;45144;-81
2022/04/27 00:57:53;;;;;;;;;17.25;15.00;;;;;12.52;46.84;102026.94;2400745;28;45665;-82
2022/04/27 00:59:04;;;;;;;;;15.50;13.25;;;;;12.53;46.33;102028.69;2403647;28;45219;-81
2022/04/27 01:00:15;;;;;;;;;18.25;15.00;;;;;12.49;47.01;102027.03;2403397;28;46671;-81
2022/04/27 01:01:25;;;;;;;;;14.75;14.25;;;;;12.49;46.71;102032.31;2403670;28;44619;-82
2022/04/27 01:02:36;;;;;;;;;15.75;15.00;;;;;12.48;46.70;102023.53;2403424;28;45311;-82
2022/04/27 01:03:46;;;;;;;;;17.00;15.75;;;;;12.45;46.87;102028.84;2392976;28;45231;-82
2022/04/27 01:04:57;;;;;;;;;14.00;14.00;;;;;12.45;46.81;102025.34;2395658;28;45290;-83
2022/04/27 01:06:08;;;;;;;;;12.75;11.75;;;;;12.43;46.91;102024.50;2394168;28;45208;-81
2022/04/27 01:07:18;;;;;;;;;16.00;14.00;;;;;12.42;47.00;102025.41;2393818;28;45393;-81
2022/04/27 01:08:28;;;;;;;;;23.00;17.00;;;;;12.44;47.28;102026.25;2394043;28;45272;-81
2022/04/27 01:09:40;;;;;;;;;17.00;15.25;;;;;12.45;47.29;102027.97;2394291;28;46536;-81
2022/04/27 01:10:50;;;;;;;;;17.00;15.67;;;;;12.45;46.86;102022.69;2394236;28;44677;-80
2022/04/27 01:12:01;;;;;;;;;15.00;14.75;;;;;12.44;46.86;102013.06;2393948;28;45419;-80
2022/04/27 01:13:12;;;;;;;;;17.25;16.75;;;;;12.45;46.92;102017.44;2394143;28;44627;-81
2022/04/27 01:14:23;;;;;;;;;19.00;15.25;;;;;12.43;46.83;102013.97;2393756;28;45662;-80
2022/04/27 01:15:36;;;;;;;;;15.50;13.00;;;;;12.41;46.92;102010.50;2394131;28;45434;-80
2022/04/27 01:16:51;;;;;;;;;17.25;13.50;;;;;12.39;46.65;102023.72;2399064;28;45541;-80
2022/04/27 01:18:03;;;;;;;;;18.50;16.75;;;;;12.35;46.94;102022.00;2396761;28;45287;-81
2022/04/27 01:19:13;;;;;;;;;17.25;16.25;;;;;12.33;46.75;102015.91;2387982;28;45634;-81
2022/04/27 01:20:23;;;;;;;;;16.00;16.00;;;;;12.32;47.11;102019.47;2394166;28;45436;-81
2022/04/27 01:21:34;;;;;;;;;22.25;15.25;;;;;12.30;47.24;102024.75;2393818;28;46197;-81
2022/04/27 01:22:44;;;;;;;;;17.00;15.50;;;;;12.32;47.23;102016.81;2393894;28;45309;-81
2022/04/27 01:23:55;;;;;;;;;16.75;16.75;;;;;12.30;46.86;102021.25;2394099;28;46205;-82
2022/04/27 01:25:06;;;;;;;;;8.50;7.00;;;;;12.29;47.32;102022.16;2393883;28;45425;-82
2022/04/27 01:26:16;;;;;;;;;17.75;17.00;;;;;12.27;46.87;102019.56;2393991;28;45364;-81
2022/04/27 01:27:26;;;;;;;;;16.25;16.00;;;;;12.26;47.03;102023.09;2394136;28;45286;-80
2022/04/27 01:28:38;;;;;;;;;14.25;14.25;;;;;12.25;47.15;102021.31;2393845;28;46447;-81
2022/04/27 01:29:49;;;;;;;;;18.00;15.00;;;;;12.22;47.06;102024.03;2393964;28;45420;-80
2022/04/27 01:31:08;;;;;;;;;15.50;14.75;;;;;12.21;47.15;102024.94;2393820;28;45262;-80
2022/04/27 01:32:18;;;;;;;;;16.25;14.00;;;;;12.15;46.80;102023.28;2394139;28;45224;-80
2022/04/27 01:33:30;;;;;;;;;17.00;15.75;;;;;12.12;47.25;102024.16;2393896;28;45189;-80
2022/04/27 01:34:40;;;;;;;;;17.50;17.00;;;;;12.06;47.25;102024.28;2393806;28;45172;-80
2022/04/27 01:35:51;;;;;;;;;14.50;13.75;;;;;12.04;47.30;102023.47;2393825;28;45382;-80
2022/04/27 01:38:35;;;;;;;;;17.25;16.25;;;;;12.01;47.34;102023.50;2403111;28;45333;-81
2022/04/27 01:39:45;;;;;;;;;16.25;15.75;;;;;11.98;47.58;102018.28;2384698;28;45256;-81
2022/04/27 01:40:56;;;;;;;;;20.50;16.00;;;;;11.97;47.40;102019.19;2380920;28;47482;-81
2022/04/27 01:42:06;;;;;;;;;20.25;14.00;;;;;11.95;47.46;102016.56;2377126;28;45442;-81
2022/04/27 01:43:16;;;;;;;;;14.75;14.75;;;;;11.96;47.34;102023.59;2386794;28;45267;-81
2022/04/27 01:44:27;;;;;;;;;20.50;18.00;;;;;11.93;47.53;102019.25;2393425;28;44714;-81
2022/04/27 01:45:38;;;;;;;;;20.25;16.50;;;;;11.93;47.65;102019.25;2387636;28;45933;-81
2022/04/27 01:46:48;;;;;;;;;17.00;14.50;;;;;11.90;47.62;102016.66;2387803;28;45195;-81
2022/04/27 01:47:59;;;;;;;;;19.75;15.50;;;;;11.91;47.40;102021.03;2376828;28;47072;-81
2022/04/27 01:49:09;;;;;;;;;20.25;17.00;;;;;11.89;47.51;102012.31;2383699;28;45396;-79
2022/04/27 01:50:20;;;;;;;;;18.00;16.25;;;;;11.88;47.58;102009.69;2386436;28;45360;-80
2022/04/27 01:54:28;;;;;;;;;18.75;16.75;;;;;11.88;47.85;102015.81;2393515;28;45515;-80
2022/04/27 01:55:39;;;;;;;;;20.25;17.00;;;;;11.87;47.75;102014.09;2396107;28;45429;-80
2022/04/27 01:56:50;;;;;;;;;18.50;17.75;;;;;11.89;47.96;102007.03;2394714;28;45211;-81
2022/04/27 01:58:00;;;;;;;;;25.50;16.75;;;;;11.91;47.81;102020.16;2393469;28;46152;-81
2022/04/27 01:59:12;;;;;;;;;18.00;14.25;;;;;11.91;47.58;102021.03;2393784;28;45366;-80
2022/04/27 02:00:22;;;;;;;;;17.75;15.50;;;;;11.93;47.82;102024.50;2393687;28;46762;-80
2022/04/27 02:01:33;;;;;;;;;18.75;16.75;;;;;11.92;47.70;102024.56;2393726;28;45781;-80
2022/04/27 02:02:43;;;;;;;;;15.75;14.50;;;;;11.91;47.77;102022.81;2393685;28;46193;-79
2022/04/27 02:03:53;;;;;;;;;14.50;14.00;;;;;11.88;47.88;102031.63;2393795;28;45453;-80
2022/04/27 02:05:04;;;;;;;;;19.25;17.25;;;;;11.86;47.66;102028.16;2393445;28;45330;-81
2022/04/27 02:06:21;;;;;;;;;18.25;16.00;;;;;11.84;48.01;102029.94;2393499;28;45184;-80
2022/04/27 02:07:31;;;;;;;;;18.00;17.25;;;;;11.84;48.15;102029.94;2400430;28;45464;-79
2022/04/27 02:08:42;;;;;;;;;19.00;16.25;;;;;11.84;48.14;102027.31;2387762;28;44709;-80
2022/04/27 02:09:52;;;;;;;;;19.00;17.25;;;;;11.84;47.95;102029.06;2386242;28;45471;-81
2022/04/27 02:11:03;;;;;;;;;21.00;17.00;;;;;11.83;47.92;102028.22;2393728;28;45411;-80
2022/04/27 02:12:13;;;;;;;;;19.25;15.50;;;;;11.83;48.29;102030.84;2393504;28;45629;-80
2022/04/27 02:13:26;;;;;;;;;19.75;18.00;;;;;11.86;48.14;102035.19;2383639;28;45302;-80
2022/04/27 02:14:36;;;;;;;;;20.00;16.75;;;;;11.84;48.05;102029.94;2386640;28;46385;-79
2022/04/27 02:15:47;;;;;;;;;20.00;19.25;;;;;11.85;48.04;102031.72;2393681;28;45223;-80
2022/04/27 02:16:57;;;;;;;;;17.25;14.75;;;;;11.85;48.09;102031.72;2399400;28;45411;-80
2022/04/27 02:18:08;;;;;;;;;17.50;15.50;;;;;11.86;47.97;102041.34;2396165;28;45223;-80
2022/04/27 02:19:20;;;;;;;;;20.00;17.25;;;;;11.88;47.94;102038.66;2392796;28;46441;-80
2022/04/27 02:20:31;;;;;;;;;21.25;19.00;;;;;11.84;47.92;102029.06;2390522;28;44677;-80
2022/04/27 02:21:41;;;;;;;;;19.25;16.25;;;;;11.82;47.89;102030.00;2389668;28;46119;-80
2022/04/27 02:22:52;;;;;;;;;18.00;17.50;;;;;11.81;48.15;102035.28;2397444;28;44675;-82
2022/04/27 02:24:03;;;;;;;;;19.50;18.75;;;;;11.81;48.09;102030.00;2400894;28;45566;-82
2022/04/27 02:25:13;;;;;;;;;19.00;18.75;;;;;11.79;48.25;102026.53;2384478;28;45189;-82
2022/04/27 02:26:23;;;;;;;;;20.75;20.00;;;;;11.80;48.20;102028.28;2380479;28;46864;-80
2022/04/27 02:27:34;;;;;;;;;15.50;15.50;;;;;11.77;48.24;102025.69;2386383;28;44803;-79
2022/04/27 02:28:44;;;;;;;;;21.75;19.75;;;;;11.78;48.17;102027.41;2393544;28;46496;-80
2022/04/27 02:29:55;;;;;;;;;22.50;19.75;;;;;11.74;48.25;102025.75;2393527;28;45273;-80
2022/04/27 02:31:06;;;;;;;;;20.25;18.50;;;;;11.75;48.33;102022.22;2393330;28;45478;-80
2022/04/27 02:32:18;;;;;;;;;23.00;19.75;;;;;11.72;48.23;102019.63;2393633;28;45164;-80
2022/04/27 02:33:30;;;;;;;;;22.75;19.00;;;;;11.65;48.38;102024.13;2393524;28;45324;-80
2022/04/27 02:34:41;;;;;;;;;19.50;19.00;;;;;11.62;48.36;102025.06;2393151;28;45443;-80
2022/04/27 02:35:52;;;;;;;;;23.75;19.25;;;;;11.59;48.55;102023.34;2393493;28;45448;-79
2022/04/27 02:37:03;;;;;;;;;19.00;18.00;;;;;11.56;48.60;102023.38;2393320;28;44680;-79
2022/04/27 02:38:14;;;;;;;;;19.50;17.75;;;;;11.54;48.48;102026.94;2393664;28;45349;-80
2022/04/27 02:39:24;;;;;;;;;22.75;19.75;;;;;11.52;48.79;102023.47;2403062;28;44636;-80
2022/04/27 02:40:35;;;;;;;;;25.75;18.75;;;;;11.50;48.78;102020.88;2388475;28;45271;-80
2022/04/27 02:41:45;;;;;;;;;22.25;19.00;;;;;11.52;48.80;102026.09;2387715;28;45164;-80
2022/04/27 02:42:55;;;;;;;;;22.75;20.75;;;;;11.52;48.61;102023.47;2393466;28;46207;-82
2022/04/27 02:44:06;;;;;;;;;21.50;18.25;;;;;11.50;48.88;102025.25;2393527;28;45137;-82
2022/04/27 02:45:16;;;;;;;;;21.25;18.00;;;;;11.51;48.52;102027.00;2392968;28;46405;-82
2022/04/27 02:46:27;;;;;;;;;19.25;19.00;;;;;11.52;48.99;102029.59;2391906;28;44789;-82
2022/04/27 02:47:37;;;;;;;;;18.00;16.25;;;;;11.51;48.94;102032.28;2393558;28;46316;-82
2022/04/27 02:51:51;;;;;;;;;22.75;18.75;;;;;11.40;48.96;102025.41;2393146;28;45270;-82
2022/04/27 02:53:02;;;;;;;;;23.75;21.00;;;;;11.36;49.24;102019.31;2393576;28;45444;-84
2022/04/27 02:54:13;;;;;;;;;21.50;19.75;;;;;11.36;49.07;102026.34;2383224;28;45450;-82
2022/04/27 02:55:23;;;;;;;;;25.75;21.25;;;;;11.35;49.10;102028.13;2386068;28;45334;-82
2022/04/27 02:56:35;;;;;;;;;22.00;18.50;;;;;11.34;49.11;102017.59;2393248;28;45453;-84
2022/04/27 02:57:46;;;;;;;;;24.75;21.00;;;;;11.34;49.49;102014.97;2382946;28;47346;-83
2022/04/27 02:58:58;;;;;;;;;19.75;18.50;;;;;11.36;49.50;102021.06;2386293;28;45329;-84
2022/04/27 03:00:08;;;;;;;;;30.25;26.75;;;;;11.32;49.37;102014.13;2393080;28;45289;-84
2022/04/27 03:01:19;;;;;;;;;24.50;22.75;;;;;11.29;49.33;102012.41;2393398;28;45218;-82
2022/04/27 03:02:29;;;;;;;;;23.25;19.00;;;;;11.28;49.35;102015.94;2393226;28;46458;-83
2022/04/27 03:03:39;;;;;;;;;23.50;21.25;;;;;11.28;49.53;102015.06;2393330;28;45291;-83
2022/04/27 03:04:50;;;;;;;;;20.50;20.25;;;;;11.31;49.78;102023.78;2392744;28;45330;-83
2022/04/27 03:06:00;;;;;;;;;23.00;20.50;;;;;11.33;49.71;102026.41;2399622;28;45466;-83
2022/04/27 03:07:10;;;;;;;;;23.75;22.50;;;;;11.31;49.75;102017.66;2400585;28;45466;-82
2022/04/27 03:08:21;;;;;;;;;25.50;22.00;;;;;11.32;49.53;102022.91;2384128;28;45220;-83
2022/04/27 03:09:31;;;;;;;;;22.75;22.25;;;;;11.31;49.93;102015.03;2373720;28;46330;-83
2022/04/27 03:10:42;;;;;;;;;23.25;21.50;;;;;11.32;49.61;102019.38;2379611;28;45480;-83
2022/04/27 03:11:55;;;;;;;;;26.50;22.50;;;;;11.31;49.63;102020.28;2393228;28;45510;-83
2022/04/27 03:13:05;;;;;;;;;24.50;20.75;;;;;11.29;49.63;102016.78;2393344;28;45207;-83
2022/04/27 03:14:16;;;;;;;;;22.25;22.00;;;;;11.24;49.64;102023.00;2393126;28;46344;-83
2022/04/27 03:15:27;;;;;;;;;24.75;21.75;;;;;11.19;49.85;102014.31;2393300;28;45302;-83
2022/04/27 03:16:37;;;;;;;;;28.00;24.50;;;;;11.17;49.73;102016.09;2393562;28;45417;-82
2022/04/27 03:18:16;;;;;;;;;25.75;25.00;;;;;11.15;49.93;102017.88;2384357;28;45232;-82
2022/04/27 03:19:19;;;;;;;;;24.00;23.00;;;;;11.16;49.87;102016.97;2387309;28;46040;-83
2022/04/27 03:20:29;;;;;;;;;27.25;23.25;;;;;11.16;49.90;102011.72;2385944;28;45184;-82
2022/04/27 03:21:39;;;;;;;;;27.00;24.25;;;;;11.16;50.05;102016.97;2394436;28;46181;-82
2022/04/27 03:22:50;;;;;;;;;23.75;22.50;;;;;11.16;50.15;102011.72;2394801;28;45342;-82
2022/04/27 03:24:00;;;;;;;;;23.75;22.00;;;;;11.17;49.84;102013.47;2384607;28;47062;-82
2022/04/27 03:25:10;;;;;;;;;26.00;23.50;;;;;11.17;50.22;102013.47;2387657;28;44665;-82
2022/04/27 03:26:21;;;;;;;;;23.00;23.00;;;;;11.19;50.21;102013.44;2400354;28;45319;-82
2022/04/27 03:27:32;;;;;;;;;24.50;22.00;;;;;11.19;50.13;102013.44;2385825;28;45234;-82
2022/04/27 03:28:42;;;;;;;;;29.25;25.50;;;;;11.18;50.30;102009.94;2390954;28;46458;-82
2022/04/27 03:29:52;;;;;;;;;26.50;23.75;;;;;11.19;50.18;102008.16;2394806;28;44699;-82
2022/04/27 03:31:03;;;;;;;;;31.50;27.00;;;;;11.17;50.07;102010.84;2394708;28;45448;-83
2022/04/27 03:32:13;;;;;;;;;24.25;21.00;;;;;11.17;50.14;102012.59;2394731;28;45425;-83
2022/04/27 03:33:23;;;;;;;;;26.50;22.50;;;;;11.15;50.14;102012.63;2384571;28;46204;-82
2022/04/27 03:34:34;;;;;;;;;26.00;24.25;;;;;11.16;50.20;102016.13;2389213;28;44779;-82
2022/04/27 03:35:44;;;;;;;;;23.25;21.25;;;;;11.12;50.24;102005.63;2385468;28;45410;-82
2022/04/27 03:36:55;;;;;;;;;27.25;23.75;;;;;11.09;50.43;102002.16;2385256;28;44574;-82
2022/04/27 03:38:07;;;;;;;;;30.75;27.25;;;;;11.09;50.38;102007.44;2385336;28;45186;-84
2022/04/27 03:39:17;;;;;;;;;24.50;22.50;;;;;11.07;50.78;101999.56;2385774;28;45143;-84
2022/04/27 03:40:28;;;;;;;;;22.25;19.75;;;;;11.08;50.66;102003.09;2394735;28;46215;-84
2022/04/27 03:41:38;;;;;;;;;26.25;23.50;;;;;11.10;50.53;102003.91;2396983;28;45496;-84
2022/04/27 03:42:48;;;;;;;;;31.50;26.00;;;;;11.10;50.46;102001.28;2387896;28;46349;-84
2022/04/27 03:43:59;;;;;;;;;29.25;24.50;;;;;11.12;50.10;102008.28;2388642;28;45154;-84
2022/04/27 03:45:09;;;;;;;;;26.50;25.00;;;;;11.13;50.32;102006.53;2402864;28;46493;-84
2022/04/27 03:46:20;;;;;;;;;27.00;25.25;;;;;11.10;50.54;102009.19;2386505;28;45493;-83
2022/04/27 03:47:30;;;;;;;;;26.25;24.00;;;;;11.10;50.33;102009.19;2387200;28;46474;-83
2022/04/27 03:48:40;;;;;;;;;29.00;26.75;;;;;11.09;50.62;102002.16;2400845;28;45511;-83
2022/04/27 03:49:51;;;;;;;;;26.75;22.50;;;;;11.12;50.61;102005.63;2391544;28;46527;-83
2022/04/27 03:51:02;;;;;;;;;26.50;25.75;;;;;11.12;50.86;102004.75;2375426;28;45576;-83
2022/04/27 03:52:12;;;;;;;;;30.50;24.25;;;;;11.13;51.06;102001.25;2377999;28;45459;-83
2022/04/27 03:53:23;;;;;;;;;25.50;24.75;;;;;11.16;50.73;102006.44;2399463;28;45274;-82
2022/04/27 03:54:33;;;;;;;;;32.50;27.00;;;;;11.17;50.92;102007.31;2399089;28;45419;-83
2022/04/27 03:55:43;;;;;;;;;28.25;26.25;;;;;11.15;50.62;102004.72;2394628;28;44736;-83
2022/04/27 03:56:54;;;;;;;;;22.75;20.25;;;;;11.15;50.95;102004.72;2394566;28;46370;-83
2022/04/27 03:58:05;;;;;;;;;25.50;24.75;;;;;11.15;50.70;102004.72;2393066;28;44772;-83
2022/04/27 03:59:15;;;;;;;;;28.00;27.25;;;;;11.14;50.55;102003.84;2384006;28;47368;-83
2022/04/27 04:00:26;;;;;;;;;31.00;25.75;;;;;11.13;50.74;102007.41;2384643;28;45259;-83
2022/04/27 04:01:37;;;;;;;;;29.00;27.00;;;;;11.13;50.73;102006.53;2386736;28;45715;-83
2022/04/27 04:02:47;;;;;;;;;31.00;29.00;;;;;11.11;50.49;102011.78;2394661;28;45275;-83
2022/04/27 04:03:59;;;;;;;;;27.75;26.25;;;;;11.11;50.49;102010.94;2394489;28;45434;-81
2022/04/27 04:05:09;;;;;;;;;27.75;27.00;;;;;11.10;50.84;102011.81;2394580;28;44939;-81
2022/04/27 04:06:19;;;;;;;;;32.00;27.50;;;;;11.08;50.76;102009.22;2394503;28;45294;-81
2022/04/27 04:07:30;;;;;;;;;26.50;23.75;;;;;11.08;50.80;102008.34;2394470;28;45407;-81
2022/04/27 04:08:40;;;;;;;;;31.25;27.75;;;;;11.08;50.69;102005.72;2395470;28;46630;-81
2022/04/27 04:09:51;;;;;;;;;30.25;28.50;;;;;11.10;50.72;102012.69;2394646;28;45298;-81
2022/04/27 04:11:01;;;;;;;;;28.00;24.25;;;;;11.08;51.18;102003.97;2394303;28;45345;-82
2022/04/27 04:12:13;;;;;;;;;42.75;33.00;;;;;11.07;50.69;102009.22;2394501;28;45400;-83
2022/04/27 04:13:23;;;;;;;;;37.25;30.75;;;;;11.05;50.96;102014.53;2394372;28;46077;-82
2022/04/27 04:14:35;;;;;;;;;30.75;27.00;;;;;11.05;50.96;102011.00;2394538;28;44793;-82
2022/04/27 04:15:46;;;;;;;;;26.25;25.75;;;;;11.04;50.97;102012.75;2394018;28;45304;-82
2022/04/27 04:16:56;;;;;;;;;31.25;28.00;;;;;11.05;50.70;102019.78;2394626;28;45262;-82
2022/04/27 04:18:07;;;;;;;;;29.75;26.75;;;;;11.02;50.87;102010.16;2394304;28;46183;-83
2022/04/27 04:19:17;;;;;;;;;27.50;26.50;;;;;11.01;50.97;102018.09;2394585;28;45227;-83
2022/04/27 04:20:27;;;;;;;;;25.00;24.00;;;;;11.00;51.10;102014.59;2394429;28;46122;-83
2022/04/27 04:21:38;;;;;;;;;29.25;26.75;;;;;10.98;50.99;102013.75;2394352;28;45156;-82
2022/04/27 04:22:48;;;;;;;;;32.25;26.50;;;;;11.00;51.06;102022.47;2394309;28;45453;-82
2022/04/27 04:23:59;;;;;;;;;38.00;31.50;;;;;11.01;51.19;102023.34;2394573;28;44805;-86
2022/04/27 04:29:38;;;;;;;;;33.50;28.75;;;;;10.92;51.14;102029.59;2394341;28;45302;-81
2022/04/27 04:30:48;;;;;;;;;34.50;29.75;;;;;10.92;51.47;102029.59;2394984;28;46369;-82
2022/04/27 04:31:58;;;;;;;;;30.75;25.00;;;;;10.90;51.70;102023.50;2401500;28;44644;-83
2022/04/27 04:33:09;;;;;;;;;27.75;23.50;;;;;10.93;51.78;102020.81;2381654;28;46486;-83
2022/04/27 04:34:19;;;;;;;;;26.50;25.75;;;;;10.91;51.23;102020.81;2384660;28;45226;-83
2022/04/27 04:35:29;;;;;;;;;29.50;26.50;;;;;10.91;51.37;102028.72;2394326;28;45352;-82
2022/04/27 04:36:40;;;;;;;;;29.00;26.25;;;;;10.91;51.62;102033.13;2394256;28;45306;-83
2022/04/27 04:37:50;;;;;;;;;33.75;27.25;;;;;10.90;51.37;102031.38;2394297;28;45487;-83
2022/04/27 04:39:00;;;;;;;;;34.50;30.00;;;;;10.86;51.64;102027.94;2394435;28;45132;-84
2022/04/27 04:40:11;;;;;;;;;35.75;28.75;;;;;10.84;51.67;102037.59;2394290;28;45460;-84
2022/04/27 04:41:21;;;;;;;;;27.50;24.00;;;;;10.84;51.70;102036.75;2394116;28;44759;-84
2022/04/27 04:42:34;;;;;;;;;32.25;29.00;;;;;10.84;51.88;102031.47;2394111;28;45333;-84
2022/04/27 04:43:44;;;;;;;;;36.75;32.00;;;;;10.84;51.63;102031.47;2394552;28;44663;-83
2022/04/27 04:44:55;;;;;;;;;37.00;30.50;;;;;10.84;51.94;102034.94;2394062;28;45168;-81
2022/04/27 04:46:05;;;;;;;;;31.00;28.50;;;;;10.85;51.77;102039.34;2393404;28;45223;-81
2022/04/27 04:47:15;;;;;;;;;32.25;30.00;;;;;10.85;51.47;102030.56;2394327;28;45324;-82
2022/04/27 04:48:26;;;;;;;;;28.25;26.50;;;;;10.86;51.72;102034.94;2384029;28;45331;-82
2022/04/27 04:49:36;;;;;;;;;30.25;27.50;;;;;10.84;52.06;102031.47;2386958;28;45457;-82
2022/04/27 04:50:46;;;;;;;;;29.25;28.00;;;;;10.86;51.72;102034.94;2393986;28;44750;-81
2022/04/27 04:51:57;;;;;;;;;39.25;30.00;;;;;10.85;51.67;102038.47;2393900;28;45225;-81
2022/04/27 04:53:07;;;;;;;;;34.50;29.00;;;;;10.85;51.67;102035.84;2398337;28;44751;-82
2022/04/27 04:54:17;;;;;;;;;29.75;25.75;;;;;10.84;51.81;102031.47;2400874;28;45483;-81
2022/04/27 04:55:28;;;;;;;;;34.75;31.00;;;;;10.79;51.73;102042.91;2394393;28;44617;-81
2022/04/27 04:56:38;;;;;;;;;32.50;29.00;;;;;10.77;51.67;102036.81;2393867;28;46335;-81
2022/04/27 04:57:48;;;;;;;;;33.75;30.50;;;;;10.78;52.15;102043.81;2394199;28;44629;-81
2022/04/27 04:58:59;;;;;;;;;33.00;27.00;;;;;10.79;52.03;102045.53;2394569;28;45745;-82
2022/04/27 05:00:10;;;;;;;;;30.25;28.50;;;;;10.81;51.97;102042.91;2399196;28;45223;-83
2022/04/27 05:01:20;;;;;;;;;30.00;27.50;;;;;10.80;52.05;102047.28;2397904;28;46696;-84
2022/04/27 05:02:31;;;;;;;;;32.00;30.00;;;;;10.79;51.82;102053.44;2395157;28;45330;-83
2022/04/27 05:03:41;;;;;;;;;28.75;27.75;;;;;10.76;52.19;102050.88;2394086;28;45508;-84
2022/04/27 05:04:52;;;;;;;;;38.50;32.25;;;;;10.75;52.28;102051.75;2393836;28;45830;-85
2022/04/27 05:06:03;;;;;;;;;38.50;31.25;;;;;10.75;51.97;102049.09;2387583;28;46392;-79
2022/04/27 05:07:13;;;;;;;;;29.75;26.75;;;;;10.76;52.40;102056.13;2383749;28;44720;-79
2022/04/27 05:08:24;;;;;;;;;37.50;30.50;;;;;10.73;52.24;102052.66;2386785;28;45453;-79
2022/04/27 05:09:34;;;;;;;;;33.75;30.75;;;;;10.69;52.19;102051.81;2394222;28;45255;-79
2022/04/27 05:10:44;;;;;;;;;32.50;30.75;;;;;10.69;52.47;102057.09;2394056;28;45326;-82
2022/04/27 05:11:55;;;;;;;;;33.75;28.75;;;;;10.67;52.21;102053.56;2394125;28;45430;-81
2022/04/27 05:13:05;;;;;;;;;36.00;32.25;;;;;10.65;52.26;102048.34;2394054;28;46280;-81
2022/04/27 05:14:16;;;;;;;;;41.50;32.00;;;;;10.66;52.96;102051.84;2393942;28;44786;-81
2022/04/27 05:15:26;;;;;;;;;38.25;32.50;;;;;10.63;52.37;102050.13;2393869;28;45387;-81
2022/04/27 05:16:36;;;;;;;;;36.75;30.50;;;;;10.62;52.46;102052.78;2394482;28;45235;-81
2022/04/27 05:17:47;;;;;;;;;33.25;31.75;;;;;10.62;52.47;102055.41;2403492;28;45249;-81
2022/04/27 05:18:57;;;;;;;;;37.50;32.25;;;;;10.64;52.44;102062.38;2389116;28;45225;-80
2022/04/27 05:20:08;;;;;;;;;36.25;30.50;;;;;10.63;52.24;102058.03;2384953;28;45232;-86
2022/04/27 05:21:18;;;;;;;;;32.50;27.00;;;;;10.58;52.61;102060.72;2390219;28;45231;-85
2022/04/27 05:22:33;;;;;;;;;32.00;29.25;;;;;10.59;52.17;102064.22;2393701;28;45426;-84
2022/04/27 05:23:44;;;;;;;;;35.25;30.75;;;;;10.57;52.42;102060.72;2383998;28;45357;-85
2022/04/27 05:24:54;;;;;;;;;30.00;25.50;;;;;10.56;52.72;102062.50;2386440;28;46017;-85
2022/04/27 05:26:04;;;;;;;;;36.00;28.50;;;;;10.58;52.71;102068.59;2400682;28;45271;-86
2022/04/27 05:27:15;;;;;;;;;33.25;29.25;;;;;10.56;52.51;102069.50;2391365;28;46352;-88
2022/04/27 05:31:53;;;;;;;;;33.50;30.25;;;;;10.56;53.11;102070.38;2392208;28;45228;-84
2022/04/27 05:32:55;;;;;;;;;34.00;28.00;;;;;10.57;52.85;102066.84;2397325;28;45668;-83
2022/04/27 05:34:06;;;;;;;;;35.00;31.25;;;;;10.59;52.79;102080.00;2388172;28;45438;-84
2022/04/27 05:35:16;;;;;;;;;34.50;30.50;;;;;10.59;53.16;102080.00;2380579;28;47298;-85
2022/04/27 05:36:27;;;;;;;;;45.25;34.00;;;;;10.60;53.10;102075.56;2392149;28;44677;-84